sensor_id;sensor_type;location;lat;lon;timestamp;pressure;altitude;pressure_sealevel;temperature;humidity
7990;BME280;4040;42.848;23.034;2023-05-02T00:03:36;95220.69;;;8.11;100.00
7990;BME280;4040;42.848;23.034;2023-05-02T00:13:48;95237.34;;;7.80;100.00
7990;BME280;4040;42.848;23.034;2023-05-02T00:19:37;95238.06;;;7.73;100.00
7990;BME280;4040;42.848;23.034;2023-05-02T00:25:26;95248.06;;;7.80;100.00
7990;BME280;4040;42.848;23.034;2023-05-02T00:31:16;95241.72;;;7.51;100.00
7990;BME280;4040;42.848;23.034;2023-05-02T00:37:06;95257.13;;;7.65;100.00
7990;BME280;4040;42.848;23.034;2023-05-02T00:42:54;95260.22;;;7.67;100.00
7990;BME280;4040;42.848;23.034;2023-05-02T00:48:45;95256.41;;;7.71;100.00
7990;BME280;4040;42.848;23.034;2023-05-02T00:54:35;95256.78;;;7.70;100.00
7990;BME280;4040;42.848;23.034;2023-05-02T01:00:31;95234.09;;;7.60;100.00
7990;BME280;4040;42.848;23.034;2023-05-02T01:06:42;95254.78;;;7.60;100.00
7990;BME280;4040;42.848;23.034;2023-05-02T01:16:55;95250.91;;;7.54;100.00
7990;BME280;4040;42.848;23.034;2023-05-02T01:22:47;95252.13;;;7.60;100.00
7990;BME280;4040;42.848;23.034;2023-05-02T01:28:50;95252.44;;;7.55;100.00
7990;BME280;4040;42.848;23.034;2023-05-02T01:34:42;95228.19;;;6.98;100.00
7990;BME280;4040;42.848;23.034;2023-05-02T01:40:33;95260.38;;;7.01;100.00
7990;BME280;4040;42.848;23.034;2023-05-02T01:46:25;95254.28;;;7.04;100.00
7990;BME280;4040;42.848;23.034;2023-05-02T01:52:15;95261.47;;;6.97;100.00
7990;BME280;4040;42.848;23.034;2023-05-02T01:58:07;95255.63;;;6.84;100.00
7990;BME280;4040;42.848;23.034;2023-05-02T02:03:59;95228.63;;;6.67;100.00
7990;BME280;4040;42.848;23.034;2023-05-02T02:09:49;95260.78;;;6.70;100.00
7990;BME280;4040;42.848;23.034;2023-05-02T02:15:40;95252.31;;;6.65;100.00
7990;BME280;4040;42.848;23.034;2023-05-02T02:21:31;95261.09;;;6.32;100.00
7990;BME280;4040;42.848;23.034;2023-05-02T02:27:21;95260.91;;;6.18;100.00
7990;BME280;4040;42.848;23.034;2023-05-02T02:33:10;95260.16;;;6.18;100.00
7990;BME280;4040;42.848;23.034;2023-05-02T02:39:09;95257.94;;;6.23;100.00
7990;BME280;4040;42.848;23.034;2023-05-02T02:45:04;95260.28;;;6.28;100.00
7990;BME280;4040;42.848;23.034;2023-05-02T02:51:02;95253.00;;;5.99;100.00
7990;BME280;4040;42.848;23.034;2023-05-02T02:57:00;95272.09;;;6.27;100.00
7990;BME280;4040;42.848;23.034;2023-05-02T03:02:53;95271.81;;;6.36;100.00
7990;BME280;4040;42.848;23.034;2023-05-02T03:08:44;95280.13;;;6.27;100.00
7990;BME280;4040;42.848;23.034;2023-05-02T03:18:45;95280.22;;;6.34;100.00
7990;BME280;4040;42.848;23.034;2023-05-02T03:24:34;95282.28;;;6.44;100.00
7990;BME280;4040;42.848;23.034;2023-05-02T03:30:23;95284.75;;;6.30;100.00
7990;BME280;4040;42.848;23.034;2023-05-02T03:36:14;95296.75;;;6.14;100.00
7990;BME280;4040;42.848;23.034;2023-05-02T03:42:03;95293.72;;;6.15;100.00
7990;BME280;4040;42.848;23.034;2023-05-02T03:47:51;95298.88;;;6.01;100.00
7990;BME280;4040;42.848;23.034;2023-05-02T03:53:42;95282.25;;;6.15;100.00
7990;BME280;4040;42.848;23.034;2023-05-02T03:59:32;95292.00;;;6.59;100.00
7990;BME280;4040;42.848;23.034;2023-05-02T04:05:21;95289.84;;;6.68;100.00
7990;BME280;4040;42.848;23.034;2023-05-02T04:11:11;95295.56;;;7.03;100.00
7990;BME280;4040;42.848;23.034;2023-05-02T04:21:23;95294.75;;;7.75;100.00
7990;BME280;4040;42.848;23.034;2023-05-02T04:27:13;95303.31;;;7.95;100.00
7990;BME280;4040;42.848;23.034;2023-05-02T04:33:02;95307.50;;;8.39;100.00
7990;BME280;4040;42.848;23.034;2023-05-02T04:38:53;95278.72;;;9.36;100.00
7990;BME280;4040;42.848;23.034;2023-05-02T04:44:44;95307.19;;;11.99;100.00
7990;BME280;4040;42.848;23.034;2023-05-02T04:50:32;95315.19;;;14.76;100.00
7990;BME280;4040;42.848;23.034;2023-05-02T04:56:21;95314.97;;;15.99;99.01
7990;BME280;4040;42.848;23.034;2023-05-02T05:02:11;95295.44;;;16.68;79.82
7990;BME280;4040;42.848;23.034;2023-05-02T05:07:59;95314.94;;;17.24;73.55
7990;BME280;4040;42.848;23.034;2023-05-02T05:13:48;95313.16;;;16.12;85.66
7990;BME280;4040;42.848;23.034;2023-05-02T05:24:01;95320.53;;;15.60;96.13
7990;BME280;4040;42.848;23.034;2023-05-02T05:29:49;95311.16;;;16.13;94.19
7990;BME280;4040;42.848;23.034;2023-05-02T05:35:38;95317.19;;;16.20;90.19
7990;BME280;4040;42.848;23.034;2023-05-02T05:41:28;95313.50;;;17.48;77.25
7990;BME280;4040;42.848;23.034;2023-05-02T05:47:20;95312.66;;;18.50;66.67
7990;BME280;4040;42.848;23.034;2023-05-02T05:53:09;95313.44;;;18.01;60.83
7990;BME280;4040;42.848;23.034;2023-05-02T05:58:59;95327.31;;;17.41;63.91
7990;BME280;4040;42.848;23.034;2023-05-02T06:04:48;95331.44;;;18.11;61.58
7990;BME280;4040;42.848;23.034;2023-05-02T06:10:37;95330.66;;;17.98;60.55
7990;BME280;4040;42.848;23.034;2023-05-02T06:16:27;95326.28;;;18.63;58.47
7990;BME280;4040;42.848;23.034;2023-05-02T06:26:37;95306.56;;;18.93;57.72
7990;BME280;4040;42.848;23.034;2023-05-02T06:32:30;95322.72;;;19.64;53.78
7990;BME280;4040;42.848;23.034;2023-05-02T06:38:20;95312.19;;;20.15;52.75
7990;BME280;4040;42.848;23.034;2023-05-02T06:44:09;95323.69;;;21.33;49.20
7990;BME280;4040;42.848;23.034;2023-05-02T06:49:59;95323.34;;;21.76;47.27
7990;BME280;4040;42.848;23.034;2023-05-02T06:55:47;95325.63;;;23.08;43.04
7990;BME280;4040;42.848;23.034;2023-05-02T07:01:37;95282.91;;;21.17;45.36
7990;BME280;4040;42.848;23.034;2023-05-02T07:07:27;95313.34;;;20.92;46.66
7990;BME280;4040;42.848;23.034;2023-05-02T07:13:16;95306.81;;;22.36;43.21
7990;BME280;4040;42.848;23.034;2023-05-02T07:19:04;95311.56;;;23.67;41.05
7990;BME280;4040;42.848;23.034;2023-05-02T07:29:16;95290.69;;;22.61;41.58
7990;BME280;4040;42.848;23.034;2023-05-02T07:35:05;95316.00;;;22.65;40.42
7990;BME280;4040;42.848;23.034;2023-05-02T07:40:57;95305.25;;;23.23;39.46
7990;BME280;4040;42.848;23.034;2023-05-02T07:46:48;95316.59;;;24.12;39.01
7990;BME280;4040;42.848;23.034;2023-05-02T07:52:36;95309.38;;;24.78;37.63
7990;BME280;4040;42.848;23.034;2023-05-02T07:58:25;95305.31;;;24.93;36.98
7990;BME280;4040;42.848;23.034;2023-05-02T08:04:15;95303.03;;;23.65;39.28
7990;BME280;4040;42.848;23.034;2023-05-02T08:10:05;95295.09;;;23.96;38.60
7990;BME280;4040;42.848;23.034;2023-05-02T08:15:55;95308.13;;;26.15;35.37
7990;BME280;4040;42.848;23.034;2023-05-02T08:21:45;95305.50;;;26.62;33.57
7990;BME280;4040;42.848;23.034;2023-05-02T08:31:56;95302.84;;;26.84;33.79
7990;BME280;4040;42.848;23.034;2023-05-02T08:37:47;95303.25;;;27.83;31.29
7990;BME280;4040;42.848;23.034;2023-05-02T08:43:35;95301.47;;;26.63;33.86
7990;BME280;4040;42.848;23.034;2023-05-02T08:49:25;95282.75;;;27.37;32.87
7990;BME280;4040;42.848;23.034;2023-05-02T08:55:17;95281.25;;;26.46;33.72
7990;BME280;4040;42.848;23.034;2023-05-02T09:01:15;95279.88;;;26.26;32.98
7990;BME280;4040;42.848;23.034;2023-05-02T09:07:03;95279.41;;;26.69;33.05
7990;BME280;4040;42.848;23.034;2023-05-02T09:12:53;95279.19;;;27.31;32.48
7990;BME280;4040;42.848;23.034;2023-05-02T09:18:43;95274.50;;;27.53;32.35
7990;BME280;4040;42.848;23.034;2023-05-02T09:24:33;95273.00;;;28.73;30.79
7990;BME280;4040;42.848;23.034;2023-05-02T09:35:03;95261.19;;;22.94;38.21
7990;BME280;4040;42.848;23.034;2023-05-02T09:40:53;95252.44;;;25.60;35.59
7990;BME280;4040;42.848;23.034;2023-05-02T09:46:44;95259.53;;;26.29;33.01
7990;BME280;4040;42.848;23.034;2023-05-02T09:52:34;95259.41;;;23.72;36.84
7990;BME280;4040;42.848;23.034;2023-05-02T09:58:23;95267.69;;;21.07;42.06
7990;BME280;4040;42.848;23.034;2023-05-02T10:04:12;95259.16;;;20.87;42.04
7990;BME280;4040;42.848;23.034;2023-05-02T10:10:06;95253.97;;;21.34;40.57
7990;BME280;4040;42.848;23.034;2023-05-02T10:15:58;95237.66;;;23.46;39.94
7990;BME280;4040;42.848;23.034;2023-05-02T10:21:48;95229.69;;;25.20;35.69
7990;BME280;4040;42.848;23.034;2023-05-02T10:27:39;95227.66;;;26.28;34.04
7990;BME280;4040;42.848;23.034;2023-05-02T10:37:50;95230.19;;;27.31;31.43
7990;BME280;4040;42.848;23.034;2023-05-02T10:43:45;95218.38;;;26.72;32.12
7990;BME280;4040;42.848;23.034;2023-05-02T10:49:48;95222.16;;;24.75;35.42
7990;BME280;4040;42.848;23.034;2023-05-02T10:55:38;95231.44;;;23.45;36.66
7990;BME280;4040;42.848;23.034;2023-05-02T11:01:37;95220.56;;;22.60;37.19
7990;BME280;4040;42.848;23.034;2023-05-02T11:07:28;95205.19;;;21.98;38.10
7990;BME280;4040;42.848;23.034;2023-05-02T11:13:49;95203.84;;;22.49;37.49
7990;BME280;4040;42.848;23.034;2023-05-02T11:26:21;95195.34;;;22.15;37.82
7990;BME280;4040;42.848;23.034;2023-05-02T11:32:09;95195.19;;;22.18;38.07
7990;BME280;4040;42.848;23.034;2023-05-02T11:38:00;95184.84;;;22.37;37.33
7990;BME280;4040;42.848;23.034;2023-05-02T11:44:01;95186.09;;;22.59;38.04
7990;BME280;4040;42.848;23.034;2023-05-02T11:49:51;95168.34;;;21.57;38.62
7990;BME280;4040;42.848;23.034;2023-05-02T11:55:47;95167.38;;;22.25;39.05
7990;BME280;4040;42.848;23.034;2023-05-02T12:01:46;95154.75;;;21.95;37.31
7990;BME280;4040;42.848;23.034;2023-05-02T12:07:36;95152.66;;;21.90;38.25
7990;BME280;4040;42.848;23.034;2023-05-02T12:13:25;95142.75;;;21.93;37.36
7990;BME280;4040;42.848;23.034;2023-05-02T12:19:15;95141.50;;;21.61;37.35
7990;BME280;4040;42.848;23.034;2023-05-02T12:25:06;95121.59;;;21.84;37.65
7990;BME280;4040;42.848;23.034;2023-05-02T12:30:54;95125.81;;;21.20;38.04
7990;BME280;4040;42.848;23.034;2023-05-02T12:33:22;95124.91;;;21.23;38.62
7990;BME280;4040;42.848;23.034;2023-05-02T12:39:12;95114.63;;;21.00;38.05
7990;BME280;4040;42.848;23.034;2023-05-02T12:45:01;95095.59;;;21.47;38.32
7990;BME280;4040;42.848;23.034;2023-05-02T12:50:50;95085.50;;;21.53;37.85
7990;BME280;4040;42.848;23.034;2023-05-02T12:56:41;95059.97;;;21.47;37.93
7990;BME280;4040;42.848;23.034;2023-05-02T13:02:29;95088.69;;;21.84;37.95
7990;BME280;4040;42.848;23.034;2023-05-02T13:08:18;95073.34;;;21.78;37.85
7990;BME280;4040;42.848;23.034;2023-05-02T13:14:09;95065.50;;;21.62;37.49
7990;BME280;4040;42.848;23.034;2023-05-02T13:19:57;95072.19;;;21.37;38.29
7990;BME280;4040;42.848;23.034;2023-05-02T13:25:46;95073.44;;;21.27;38.07
7990;BME280;4040;42.848;23.034;2023-05-02T13:31:36;95074.75;;;20.99;37.75
7990;BME280;4040;42.848;23.034;2023-05-02T13:37:25;95054.56;;;21.29;37.44
7990;BME280;4040;42.848;23.034;2023-05-02T13:43:14;95074.72;;;21.17;37.64
7990;BME280;4040;42.848;23.034;2023-05-02T13:49:04;95074.19;;;20.77;37.92
7990;BME280;4040;42.848;23.034;2023-05-02T13:54:53;95071.00;;;20.79;37.86
7990;BME280;4040;42.848;23.034;2023-05-02T14:00:42;95045.44;;;20.91;37.18
7990;BME280;4040;42.848;23.034;2023-05-02T14:06:32;95047.44;;;20.81;37.32
7990;BME280;4040;42.848;23.034;2023-05-02T14:12:21;95065.88;;;20.54;37.56
7990;BME280;4040;42.848;23.034;2023-05-02T14:18:10;95075.91;;;20.57;37.33
7990;BME280;4040;42.848;23.034;2023-05-02T14:24:00;95060.44;;;20.45;37.60
7990;BME280;4040;42.848;23.034;2023-05-02T14:29:49;95058.13;;;20.53;37.02
7990;BME280;4040;42.848;23.034;2023-05-02T14:39:51;95061.50;;;20.12;37.81
7990;BME280;4040;42.848;23.034;2023-05-02T14:45:42;95046.78;;;20.18;37.88
7990;BME280;4040;42.848;23.034;2023-05-02T14:51:30;95045.41;;;20.32;37.78
7990;BME280;4040;42.848;23.034;2023-05-02T14:57:21;95069.38;;;20.46;37.59
7990;BME280;4040;42.848;23.034;2023-05-02T15:03:10;95052.97;;;20.28;37.13
7990;BME280;4040;42.848;23.034;2023-05-02T15:08:59;95053.31;;;20.30;36.93
7990;BME280;4040;42.848;23.034;2023-05-02T15:14:50;95043.25;;;20.18;37.41
7990;BME280;4040;42.848;23.034;2023-05-02T15:20:38;95051.75;;;20.02;37.81
7990;BME280;4040;42.848;23.034;2023-05-02T15:26:27;95049.81;;;20.11;38.21
7990;BME280;4040;42.848;23.034;2023-05-02T15:32:17;95039.94;;;20.05;38.28
7990;BME280;4040;42.848;23.034;2023-05-02T15:42:27;95041.13;;;19.77;38.14
7990;BME280;4040;42.848;23.034;2023-05-02T15:48:17;95054.78;;;19.68;37.92
7990;BME280;4040;42.848;23.034;2023-05-02T15:54:06;95043.53;;;19.57;38.14
7990;BME280;4040;42.848;23.034;2023-05-02T15:59:55;95026.81;;;19.46;38.54
7990;BME280;4040;42.848;23.034;2023-05-02T16:05:45;95049.81;;;19.27;38.82
7990;BME280;4040;42.848;23.034;2023-05-02T16:11:34;95044.00;;;19.16;39.34
7990;BME280;4040;42.848;23.034;2023-05-02T16:17:23;95044.22;;;19.00;38.93
7990;BME280;4040;42.848;23.034;2023-05-02T16:23:13;95058.16;;;18.93;38.82
7990;BME280;4040;42.848;23.034;2023-05-02T16:29:01;95048.25;;;18.77;38.80
7990;BME280;4040;42.848;23.034;2023-05-02T16:34:50;95061.31;;;18.61;38.98
7990;BME280;4040;42.848;23.034;2023-05-02T16:45:02;95017.81;;;17.93;39.40
7990;BME280;4040;42.848;23.034;2023-05-02T16:50:51;95075.00;;;18.05;39.39
7990;BME280;4040;42.848;23.034;2023-05-02T16:56:40;95073.22;;;17.90;40.12
7990;BME280;4040;42.848;23.034;2023-05-02T17:02:30;95073.03;;;17.72;40.46
7990;BME280;4040;42.848;23.034;2023-05-02T17:08:19;95076.03;;;17.53;41.19
7990;BME280;4040;42.848;23.034;2023-05-02T17:14:07;95097.06;;;17.27;42.17
7990;BME280;4040;42.848;23.034;2023-05-02T17:19:58;95105.88;;;17.06;42.65
7990;BME280;4040;42.848;23.034;2023-05-02T17:25:47;95108.47;;;16.85;43.36
7990;BME280;4040;42.848;23.034;2023-05-02T17:31:37;95110.06;;;16.57;43.90
7990;BME280;4040;42.848;23.034;2023-05-02T17:37:27;95118.25;;;16.41;44.08
7990;BME280;4040;42.848;23.034;2023-05-02T17:47:37;95116.72;;;16.12;45.25
7990;BME280;4040;42.848;23.034;2023-05-02T17:53:28;95113.28;;;15.95;45.54
7990;BME280;4040;42.848;23.034;2023-05-02T17:59:17;95120.78;;;15.75;46.01
7990;BME280;4040;42.848;23.034;2023-05-02T18:05:07;95122.66;;;15.62;46.43
7990;BME280;4040;42.848;23.034;2023-05-02T18:10:57;95133.84;;;15.48;47.00
7990;BME280;4040;42.848;23.034;2023-05-02T18:16:46;95141.13;;;15.35;46.49
7990;BME280;4040;42.848;23.034;2023-05-02T18:22:34;95147.34;;;15.17;47.35
7990;BME280;4040;42.848;23.034;2023-05-02T18:28:25;95124.78;;;15.04;47.55
7990;BME280;4040;42.848;23.034;2023-05-02T18:34:14;95145.13;;;14.96;47.84
7990;BME280;4040;42.848;23.034;2023-05-02T18:40:03;95145.81;;;15.00;48.20
7990;BME280;4040;42.848;23.034;2023-05-02T18:50:15;95140.41;;;15.00;48.42
7990;BME280;4040;42.848;23.034;2023-05-02T18:56:11;95150.72;;;14.89;49.00
7990;BME280;4040;42.848;23.034;2023-05-02T19:02:00;95154.06;;;14.77;49.59
7990;BME280;4040;42.848;23.034;2023-05-02T19:07:50;95161.84;;;14.75;49.88
7990;BME280;4040;42.848;23.034;2023-05-02T19:13:39;95167.09;;;14.66;49.89
7990;BME280;4040;42.848;23.034;2023-05-02T19:19:27;95158.75;;;14.57;50.06
7990;BME280;4040;42.848;23.034;2023-05-02T19:25:18;95162.97;;;14.58;50.26
7990;BME280;4040;42.848;23.034;2023-05-02T19:31:08;95175.25;;;14.43;50.88
7990;BME280;4040;42.848;23.034;2023-05-02T19:36:57;95181.31;;;14.31;50.90
7990;BME280;4040;42.848;23.034;2023-05-02T19:42:47;95176.16;;;14.17;51.42
7990;BME280;4040;42.848;23.034;2023-05-02T19:52:57;95175.22;;;14.04;51.02
7990;BME280;4040;42.848;23.034;2023-05-02T19:58:49;95166.00;;;13.98;51.54
7990;BME280;4040;42.848;23.034;2023-05-02T20:04:38;95137.44;;;13.74;51.27
7990;BME280;4040;42.848;23.034;2023-05-02T20:10:26;95160.94;;;14.00;50.80
7990;BME280;4040;42.848;23.034;2023-05-02T20:16:17;95167.38;;;14.09;50.25
7990;BME280;4040;42.848;23.034;2023-05-02T20:22:05;95176.84;;;14.21;49.82
7990;BME280;4040;42.848;23.034;2023-05-02T20:27:54;95176.25;;;14.10;50.47
7990;BME280;4040;42.848;23.034;2023-05-02T20:33:44;95179.44;;;14.05;50.94
7990;BME280;4040;42.848;23.034;2023-05-02T20:39:33;95193.22;;;13.91;51.23
7990;BME280;4040;42.848;23.034;2023-05-02T20:45:23;95173.91;;;13.66;52.20
7990;BME280;4040;42.848;23.034;2023-05-02T20:55:35;95179.09;;;13.80;52.40
7990;BME280;4040;42.848;23.034;2023-05-02T21:01:24;95181.56;;;13.71;53.10
7990;BME280;4040;42.848;23.034;2023-05-02T21:07:13;95183.97;;;13.65;53.67
7990;BME280;4040;42.848;23.034;2023-05-02T21:13:03;95180.41;;;13.72;53.82
7990;BME280;4040;42.848;23.034;2023-05-02T21:18:51;95191.63;;;13.70;54.23
7990;BME280;4040;42.848;23.034;2023-05-02T21:24:41;95193.81;;;13.79;54.23
7990;BME280;4040;42.848;23.034;2023-05-02T21:30:32;95200.03;;;13.76;54.64
7990;BME280;4040;42.848;23.034;2023-05-02T21:36:22;95189.38;;;13.65;54.86
7990;BME280;4040;42.848;23.034;2023-05-02T21:42:10;95217.13;;;13.73;54.51
7990;BME280;4040;42.848;23.034;2023-05-02T21:48:01;95223.13;;;13.84;54.32
7990;BME280;4040;42.848;23.034;2023-05-02T21:58:11;95197.16;;;13.63;54.89
7990;BME280;4040;42.848;23.034;2023-05-02T22:08:32;95201.34;;;13.41;55.90
7990;BME280;4040;42.848;23.034;2023-05-02T22:14:21;95198.00;;;13.34;56.26
7990;BME280;4040;42.848;23.034;2023-05-02T22:20:10;95214.97;;;13.34;56.26
7990;BME280;4040;42.848;23.034;2023-05-02T22:26:01;95213.97;;;13.25;57.16
7990;BME280;4040;42.848;23.034;2023-05-02T22:31:50;95227.84;;;13.27;57.04
7990;BME280;4040;42.848;23.034;2023-05-02T22:37:38;95225.13;;;13.27;57.22
7990;BME280;4040;42.848;23.034;2023-05-02T22:43:29;95240.31;;;13.21;57.61
7990;BME280;4040;42.848;23.034;2023-05-02T22:49:17;95260.41;;;13.20;57.84
7990;BME280;4040;42.848;23.034;2023-05-02T22:55:08;95240.47;;;13.07;57.64
7990;BME280;4040;42.848;23.034;2023-05-02T23:00:58;95248.91;;;13.12;57.71
7990;BME280;4040;42.848;23.034;2023-05-02T23:11:08;95196.53;;;12.99;58.37
7990;BME280;4040;42.848;23.034;2023-05-02T23:17:00;95165.19;;;12.75;55.49
7990;BME280;4040;42.848;23.034;2023-05-02T23:22:48;95229.03;;;12.92;54.36
7990;BME280;4040;42.848;23.034;2023-05-02T23:28:38;95201.75;;;12.83;52.33
7990;BME280;4040;42.848;23.034;2023-05-02T23:34:29;95247.59;;;12.94;51.28
7990;BME280;4040;42.848;23.034;2023-05-02T23:40:18;95222.59;;;12.83;51.39
7990;BME280;4040;42.848;23.034;2023-05-02T23:46:07;95225.38;;;12.76;51.10
7990;BME280;4040;42.848;23.034;2023-05-02T23:51:57;95218.59;;;12.64;50.99
7990;BME280;4040;42.848;23.034;2023-05-02T23:57:47;95227.16;;;12.56;50.38
